sensor_id;sensor_type;location;lat;lon;timestamp;pressure;altitude;pressure_sealevel;temperature;humidity
30730;BME280;17476;48.458;7.928;2023-03-15T00:01:16;99824.34;;;6.26;91.67
30730;BME280;17476;48.458;7.928;2023-03-15T00:03:47;99833.78;;;6.27;91.39
30730;BME280;17476;48.458;7.928;2023-03-15T00:06:13;99839.78;;;6.28;90.21
30730;BME280;17476;48.458;7.928;2023-03-15T00:08:39;99840.75;;;6.27;89.36
30730;BME280;17476;48.458;7.928;2023-03-15T00:11:05;99841.03;;;6.24;89.82
30730;BME280;17476;48.458;7.928;2023-03-15T00:13:32;99847.44;;;6.20;89.48
30730;BME280;17476;48.458;7.928;2023-03-15T00:16:00;99854.41;;;6.19;89.55
30730;BME280;17476;48.458;7.928;2023-03-15T00:18:27;99859.34;;;6.13;89.89
30730;BME280;17476;48.458;7.928;2023-03-15T00:20:54;99865.75;;;6.09;89.71
30730;BME280;17476;48.458;7.928;2023-03-15T00:23:20;99876.00;;;6.00;88.68
30730;BME280;17476;48.458;7.928;2023-03-15T00:25:48;99885.03;;;5.96;89.19
30730;BME280;17476;48.458;7.928;2023-03-15T00:28:14;99892.09;;;5.94;89.22
30730;BME280;17476;48.458;7.928;2023-03-15T00:30:41;99899.22;;;5.92;90.39
30730;BME280;17476;48.458;7.928;2023-03-15T00:33:07;99900.72;;;5.95;89.25
30730;BME280;17476;48.458;7.928;2023-03-15T00:35:37;99914.19;;;5.89;89.97
30730;BME280;17476;48.458;7.928;2023-03-15T00:38:03;99916.09;;;5.87;89.87
30730;BME280;17476;48.458;7.928;2023-03-15T00:40:29;99918.16;;;5.83;90.28
30730;BME280;17476;48.458;7.928;2023-03-15T00:42:55;99922.53;;;5.83;88.88
30730;BME280;17476;48.458;7.928;2023-03-15T00:45:23;99925.53;;;5.78;88.98
30730;BME280;17476;48.458;7.928;2023-03-15T00:47:51;99928.13;;;5.78;89.79
30730;BME280;17476;48.458;7.928;2023-03-15T00:50:18;99928.13;;;5.78;90.00
30730;BME280;17476;48.458;7.928;2023-03-15T00:52:45;99938.34;;;5.80;90.96
30730;BME280;17476;48.458;7.928;2023-03-15T00:55:14;99934.00;;;5.80;92.02
30730;BME280;17476;48.458;7.928;2023-03-15T00:57:42;99933.84;;;5.82;91.87
30730;BME280;17476;48.458;7.928;2023-03-15T01:00:16;99939.03;;;5.82;90.73
30730;BME280;17476;48.458;7.928;2023-03-15T01:02:45;99938.94;;;5.83;90.75
30730;BME280;17476;48.458;7.928;2023-03-15T01:05:12;99941.78;;;5.80;90.87
30730;BME280;17476;48.458;7.928;2023-03-15T01:07:38;99935.63;;;5.71;90.36
30730;BME280;17476;48.458;7.928;2023-03-15T01:10:05;99941.19;;;5.67;89.99
30730;BME280;17476;48.458;7.928;2023-03-15T01:12:33;99940.06;;;5.60;88.74
30730;BME280;17476;48.458;7.928;2023-03-15T01:15:01;99941.69;;;5.51;88.62
30730;BME280;17476;48.458;7.928;2023-03-15T01:17:28;99945.91;;;5.42;89.29
30730;BME280;17476;48.458;7.928;2023-03-15T01:19:54;99952.56;;;5.35;88.71
30730;BME280;17476;48.458;7.928;2023-03-15T01:22:22;99951.28;;;5.30;89.21
30730;BME280;17476;48.458;7.928;2023-03-15T01:25:16;99956.72;;;5.27;89.73
30730;BME280;17476;48.458;7.928;2023-03-15T01:28:07;99957.13;;;5.22;89.71
30730;BME280;17476;48.458;7.928;2023-03-15T01:30:32;99963.50;;;5.18;89.75
30730;BME280;17476;48.458;7.928;2023-03-15T01:32:58;99963.34;;;5.10;89.90
30730;BME280;17476;48.458;7.928;2023-03-15T01:35:24;99964.53;;;5.06;89.26
30730;BME280;17476;48.458;7.928;2023-03-15T01:38:06;99970.94;;;5.02;89.64
30730;BME280;17476;48.458;7.928;2023-03-15T01:41:06;99965.16;;;4.98;88.95
30730;BME280;17476;48.458;7.928;2023-03-15T01:43:33;99976.84;;;4.92;89.64
30730;BME280;17476;48.458;7.928;2023-03-15T01:46:20;99977.34;;;4.86;89.70
30730;BME280;17476;48.458;7.928;2023-03-15T01:51:48;99984.13;;;4.78;89.77
30730;BME280;17476;48.458;7.928;2023-03-15T01:54:56;99994.16;;;4.71;89.24
30730;BME280;17476;48.458;7.928;2023-03-15T01:57:57;99986.06;;;4.64;88.78
30730;BME280;17476;48.458;7.928;2023-03-15T02:00:33;99992.56;;;4.59;89.42
30730;BME280;17476;48.458;7.928;2023-03-15T02:03:17;99987.66;;;4.45;88.86
30730;BME280;17476;48.458;7.928;2023-03-15T02:05:53;99997.81;;;4.36;89.31
30730;BME280;17476;48.458;7.928;2023-03-15T02:08:24;99994.41;;;4.36;89.87
30730;BME280;17476;48.458;7.928;2023-03-15T02:10:54;99997.13;;;4.34;89.95
30730;BME280;17476;48.458;7.928;2023-03-15T02:13:24;99998.91;;;4.34;90.21
30730;BME280;17476;48.458;7.928;2023-03-15T02:15:52;100000.78;;;4.32;89.88
30730;BME280;17476;48.458;7.928;2023-03-15T02:18:20;100007.97;;;4.28;89.74
30730;BME280;17476;48.458;7.928;2023-03-15T02:21:00;100006.69;;;4.23;89.22
30730;BME280;17476;48.458;7.928;2023-03-15T02:23:29;100016.13;;;4.01;89.25
30730;BME280;17476;48.458;7.928;2023-03-15T02:26:49;100013.94;;;3.74;89.56
30730;BME280;17476;48.458;7.928;2023-03-15T02:29:07;100021.81;;;3.73;90.90
30730;BME280;17476;48.458;7.928;2023-03-15T02:31:33;100017.91;;;3.78;91.60
30730;BME280;17476;48.458;7.928;2023-03-15T02:47:12;100019.78;;;3.76;89.45
30730;BME280;17476;48.458;7.928;2023-03-15T02:51:20;100021.44;;;3.66;89.83
30730;BME280;17476;48.458;7.928;2023-03-15T02:55:22;100036.25;;;3.64;90.04
30730;BME280;17476;48.458;7.928;2023-03-15T02:59:37;100030.72;;;3.58;89.88
30730;BME280;17476;48.458;7.928;2023-03-15T03:03:28;100041.16;;;3.45;89.69
30730;BME280;17476;48.458;7.928;2023-03-15T03:07:08;100040.63;;;3.06;90.02
30730;BME280;17476;48.458;7.928;2023-03-15T03:10:16;100046.38;;;3.10;91.23
30730;BME280;17476;48.458;7.928;2023-03-15T03:13:37;100048.06;;;3.22;91.49
30730;BME280;17476;48.458;7.928;2023-03-15T03:16:16;100043.50;;;3.25;91.08
30730;BME280;17476;48.458;7.928;2023-03-15T03:18:45;100047.59;;;3.28;91.34
30730;BME280;17476;48.458;7.928;2023-03-15T03:21:10;100051.69;;;3.31;91.37
30730;BME280;17476;48.458;7.928;2023-03-15T03:23:36;100053.34;;;3.32;90.89
30730;BME280;17476;48.458;7.928;2023-03-15T03:26:03;100052.03;;;3.15;90.06
30730;BME280;17476;48.458;7.928;2023-03-15T03:28:30;100058.41;;;2.98;90.59
30730;BME280;17476;48.458;7.928;2023-03-15T03:30:57;100063.50;;;2.99;92.03
30730;BME280;17476;48.458;7.928;2023-03-15T03:33:25;100060.94;;;3.11;91.99
30730;BME280;17476;48.458;7.928;2023-03-15T03:35:52;100070.94;;;3.15;91.66
30730;BME280;17476;48.458;7.928;2023-03-15T03:38:18;100068.13;;;3.18;91.80
30730;BME280;17476;48.458;7.928;2023-03-15T03:40:45;100069.88;;;3.18;91.64
30730;BME280;17476;48.458;7.928;2023-03-15T03:43:10;100069.16;;;3.16;91.33
30730;BME280;17476;48.458;7.928;2023-03-15T03:45:36;100068.09;;;3.07;91.89
30730;BME280;17476;48.458;7.928;2023-03-15T03:48:02;100074.22;;;3.06;90.94
30730;BME280;17476;48.458;7.928;2023-03-15T03:51:21;100071.25;;;2.99;90.44
30730;BME280;17476;48.458;7.928;2023-03-15T03:54:14;100080.75;;;2.99;91.83
30730;BME280;17476;48.458;7.928;2023-03-15T04:17:19;100106.06;;;2.70;91.58
30730;BME280;17476;48.458;7.928;2023-03-15T04:54:22;100123.31;;;2.45;94.38
30730;BME280;17476;48.458;7.928;2023-03-15T04:58:31;100127.31;;;2.50;94.30
30730;BME280;17476;48.458;7.928;2023-03-15T05:02:30;100122.16;;;2.37;92.99
30730;BME280;17476;48.458;7.928;2023-03-15T05:05:51;100132.94;;;2.31;94.17
30730;BME280;17476;48.458;7.928;2023-03-15T05:08:37;100134.78;;;2.29;94.69
30730;BME280;17476;48.458;7.928;2023-03-15T05:11:05;100130.03;;;2.23;95.17
30730;BME280;17476;48.458;7.928;2023-03-15T05:13:31;100131.38;;;2.28;93.65
30730;BME280;17476;48.458;7.928;2023-03-15T05:15:57;100140.19;;;2.13;94.12
30730;BME280;17476;48.458;7.928;2023-03-15T05:18:23;100134.81;;;2.16;95.02
30730;BME280;17476;48.458;7.928;2023-03-15T05:20:49;100135.22;;;2.23;94.84
30730;BME280;17476;48.458;7.928;2023-03-15T05:23:15;100136.94;;;2.35;94.49
30730;BME280;17476;48.458;7.928;2023-03-15T05:25:41;100140.47;;;2.34;94.46
30730;BME280;17476;48.458;7.928;2023-03-15T05:28:07;100138.41;;;2.39;95.49
30730;BME280;17476;48.458;7.928;2023-03-15T05:30:33;100138.91;;;2.44;95.25
30730;BME280;17476;48.458;7.928;2023-03-15T05:32:59;100134.13;;;2.51;95.15
30730;BME280;17476;48.458;7.928;2023-03-15T05:35:29;100133.69;;;2.57;94.71
30730;BME280;17476;48.458;7.928;2023-03-15T05:37:55;100136.47;;;2.66;95.42
30730;BME280;17476;48.458;7.928;2023-03-15T05:40:21;100134.66;;;2.80;94.48
30730;BME280;17476;48.458;7.928;2023-03-15T05:42:47;100136.44;;;2.79;94.23
30730;BME280;17476;48.458;7.928;2023-03-15T05:45:13;100130.06;;;2.72;94.24
30730;BME280;17476;48.458;7.928;2023-03-15T05:47:39;100133.22;;;2.52;94.13
30730;BME280;17476;48.458;7.928;2023-03-15T05:50:05;100135.38;;;2.45;94.55
30730;BME280;17476;48.458;7.928;2023-03-15T05:52:31;100135.00;;;2.38;95.96
30730;BME280;17476;48.458;7.928;2023-03-15T05:54:57;100133.00;;;2.42;96.33
30730;BME280;17476;48.458;7.928;2023-03-15T05:57:22;100136.00;;;2.49;96.68
30730;BME280;17476;48.458;7.928;2023-03-15T05:59:48;100132.03;;;2.56;96.39
30730;BME280;17476;48.458;7.928;2023-03-15T06:02:14;100133.69;;;2.57;95.02
30730;BME280;17476;48.458;7.928;2023-03-15T06:04:45;100150.66;;;2.48;95.50
30730;BME280;17476;48.458;7.928;2023-03-15T06:07:13;100147.66;;;2.54;94.82
30730;BME280;17476;48.458;7.928;2023-03-15T06:09:39;100150.16;;;2.30;95.61
30730;BME280;17476;48.458;7.928;2023-03-15T06:12:05;100162.97;;;2.32;96.28
30730;BME280;17476;48.458;7.928;2023-03-15T06:14:33;100155.00;;;2.35;95.87
30730;BME280;17476;48.458;7.928;2023-03-15T06:16:59;100164.53;;;2.22;95.27
30730;BME280;17476;48.458;7.928;2023-03-15T06:19:25;100165.03;;;2.27;98.23
30730;BME280;17476;48.458;7.928;2023-03-15T06:21:50;100161.81;;;2.36;96.53
30730;BME280;17476;48.458;7.928;2023-03-15T06:24:16;100167.84;;;2.24;97.37
30730;BME280;17476;48.458;7.928;2023-03-15T06:26:42;100170.09;;;2.28;97.48
30730;BME280;17476;48.458;7.928;2023-03-15T06:29:08;100164.41;;;2.36;97.33
30730;BME280;17476;48.458;7.928;2023-03-15T06:31:34;100170.50;;;2.35;96.59
30730;BME280;17476;48.458;7.928;2023-03-15T06:34:00;100168.63;;;2.37;97.42
30730;BME280;17476;48.458;7.928;2023-03-15T06:36:26;100176.75;;;2.43;96.51
30730;BME280;17476;48.458;7.928;2023-03-15T06:38:52;100183.69;;;2.43;97.37
30730;BME280;17476;48.458;7.928;2023-03-15T06:41:19;100188.03;;;2.42;97.07
30730;BME280;17476;48.458;7.928;2023-03-15T06:43:46;100188.25;;;2.52;96.43
30730;BME280;17476;48.458;7.928;2023-03-15T06:46:12;100191.81;;;2.62;96.20
30730;BME280;17476;48.458;7.928;2023-03-15T06:48:37;100188.72;;;2.57;95.36
30730;BME280;17476;48.458;7.928;2023-03-15T06:51:03;100192.47;;;2.53;96.21
30730;BME280;17476;48.458;7.928;2023-03-15T06:53:30;100195.56;;;2.58;96.48
30730;BME280;17476;48.458;7.928;2023-03-15T06:55:56;100205.16;;;2.56;96.21
30730;BME280;17476;48.458;7.928;2023-03-15T06:58:22;100207.66;;;2.58;97.34
30730;BME280;17476;48.458;7.928;2023-03-15T07:00:48;100205.34;;;2.66;97.35
30730;BME280;17476;48.458;7.928;2023-03-15T07:03:15;100214.22;;;2.74;97.33
30730;BME280;17476;48.458;7.928;2023-03-15T07:05:40;100214.06;;;2.89;97.72
30730;BME280;17476;48.458;7.928;2023-03-15T07:08:06;100219.81;;;3.05;97.34
30730;BME280;17476;48.458;7.928;2023-03-15T07:10:32;100223.22;;;3.06;95.77
30730;BME280;17476;48.458;7.928;2023-03-15T07:12:58;100222.56;;;3.15;96.06
30730;BME280;17476;48.458;7.928;2023-03-15T07:15:24;100225.97;;;3.15;95.76
30730;BME280;17476;48.458;7.928;2023-03-15T07:17:50;100228.38;;;3.29;94.82
30730;BME280;17476;48.458;7.928;2023-03-15T07:20:16;100223.34;;;3.28;95.98
30730;BME280;17476;48.458;7.928;2023-03-15T07:22:42;100226.56;;;3.43;94.40
30730;BME280;17476;48.458;7.928;2023-03-15T07:25:10;100228.16;;;3.56;94.15
30730;BME280;17476;48.458;7.928;2023-03-15T07:27:36;100225.47;;;3.58;93.92
30730;BME280;17476;48.458;7.928;2023-03-15T07:30:03;100217.78;;;3.80;95.24
30730;BME280;17476;48.458;7.928;2023-03-15T07:32:29;100215.50;;;4.00;94.16
30730;BME280;17476;48.458;7.928;2023-03-15T07:34:56;100219.06;;;4.21;93.93
30730;BME280;17476;48.458;7.928;2023-03-15T07:37:41;100218.81;;;4.47;92.24
30730;BME280;17476;48.458;7.928;2023-03-15T07:40:10;100213.97;;;4.53;92.30
30730;BME280;17476;48.458;7.928;2023-03-15T07:42:41;100214.34;;;4.82;92.71
30730;BME280;17476;48.458;7.928;2023-03-15T07:45:08;100204.38;;;5.10;90.00
30730;BME280;17476;48.458;7.928;2023-03-15T07:47:34;100205.06;;;5.23;90.15
30730;BME280;17476;48.458;7.928;2023-03-15T07:50:01;100208.47;;;5.56;90.57
30730;BME280;17476;48.458;7.928;2023-03-15T07:52:28;100207.47;;;5.89;87.15
30730;BME280;17476;48.458;7.928;2023-03-15T07:54:54;100215.59;;;5.95;85.12
30730;BME280;17476;48.458;7.928;2023-03-15T07:57:20;100214.53;;;6.19;87.43
30730;BME280;17476;48.458;7.928;2023-03-15T07:59:45;100209.47;;;6.48;86.83
30730;BME280;17476;48.458;7.928;2023-03-15T08:02:12;100221.19;;;6.73;87.61
30730;BME280;17476;48.458;7.928;2023-03-15T08:04:40;100226.22;;;7.05;82.92
30730;BME280;17476;48.458;7.928;2023-03-15T08:07:06;100214.88;;;7.45;83.94
30730;BME280;17476;48.458;7.928;2023-03-15T08:09:32;100213.78;;;7.76;84.79
30730;BME280;17476;48.458;7.928;2023-03-15T08:12:00;100219.09;;;7.94;80.10
30730;BME280;17476;48.458;7.928;2023-03-15T08:14:26;100221.78;;;8.21;80.21
30730;BME280;17476;48.458;7.928;2023-03-15T08:16:51;100209.59;;;8.87;77.77
30730;BME280;17476;48.458;7.928;2023-03-15T08:19:18;100211.50;;;9.48;70.82
30730;BME280;17476;48.458;7.928;2023-03-15T08:21:44;100210.28;;;9.96;72.54
30730;BME280;17476;48.458;7.928;2023-03-15T08:24:13;100220.31;;;10.26;70.50
30730;BME280;17476;48.458;7.928;2023-03-15T08:26:40;100219.31;;;10.27;68.25
30730;BME280;17476;48.458;7.928;2023-03-15T08:29:08;100216.06;;;10.25;66.20
30730;BME280;17476;48.458;7.928;2023-03-15T08:31:34;100207.50;;;10.49;65.04
30730;BME280;17476;48.458;7.928;2023-03-15T08:34:00;100214.13;;;10.70;62.50
30730;BME280;17476;48.458;7.928;2023-03-15T08:36:26;100223.84;;;10.85;61.84
30730;BME280;17476;48.458;7.928;2023-03-15T08:38:51;100227.03;;;11.13;60.93
30730;BME280;17476;48.458;7.928;2023-03-15T08:41:17;100231.09;;;11.00;59.66
30730;BME280;17476;48.458;7.928;2023-03-15T08:43:44;100234.44;;;10.42;60.08
30730;BME280;17476;48.458;7.928;2023-03-15T08:46:10;100231.19;;;10.48;60.60
30730;BME280;17476;48.458;7.928;2023-03-15T08:48:36;100228.38;;;10.75;59.99
30730;BME280;17476;48.458;7.928;2023-03-15T08:51:06;100230.81;;;11.11;59.49
30730;BME280;17476;48.458;7.928;2023-03-15T08:53:33;100230.88;;;11.52;58.28
30730;BME280;17476;48.458;7.928;2023-03-15T08:56:00;100233.97;;;11.63;55.44
30730;BME280;17476;48.458;7.928;2023-03-15T08:58:27;100237.28;;;11.73;57.01
30730;BME280;17476;48.458;7.928;2023-03-15T09:00:53;100233.50;;;12.09;57.03
30730;BME280;17476;48.458;7.928;2023-03-15T09:03:19;100240.31;;;12.50;55.38
30730;BME280;17476;48.458;7.928;2023-03-15T09:05:47;100238.56;;;12.82;52.97
30730;BME280;17476;48.458;7.928;2023-03-15T09:08:13;100246.22;;;12.44;50.51
30730;BME280;17476;48.458;7.928;2023-03-15T09:10:41;100248.25;;;12.18;52.48
30730;BME280;17476;48.458;7.928;2023-03-15T09:13:07;100241.06;;;12.03;54.55
30730;BME280;17476;48.458;7.928;2023-03-15T09:15:36;100245.31;;;12.05;54.70
30730;BME280;17476;48.458;7.928;2023-03-15T09:18:01;100252.31;;;11.71;54.13
30730;BME280;17476;48.458;7.928;2023-03-15T09:20:27;100249.88;;;11.70;54.54
30730;BME280;17476;48.458;7.928;2023-03-15T09:22:56;100249.25;;;11.84;55.65
30730;BME280;17476;48.458;7.928;2023-03-15T09:25:23;100249.56;;;11.73;53.27
30730;BME280;17476;48.458;7.928;2023-03-15T09:27:51;100258.59;;;11.87;52.97
30730;BME280;17476;48.458;7.928;2023-03-15T09:30:18;100260.16;;;11.47;54.37
30730;BME280;17476;48.458;7.928;2023-03-15T09:32:44;100259.75;;;11.92;52.39
30730;BME280;17476;48.458;7.928;2023-03-15T09:35:17;100264.47;;;12.05;51.17
30730;BME280;17476;48.458;7.928;2023-03-15T09:37:43;100263.19;;;11.93;53.46
30730;BME280;17476;48.458;7.928;2023-03-15T09:40:26;100269.06;;;11.95;51.86
30730;BME280;17476;48.458;7.928;2023-03-15T09:46:10;100257.59;;;12.20;53.50
30730;BME280;17476;48.458;7.928;2023-03-15T09:49:06;100252.81;;;12.32;51.98
30730;BME280;17476;48.458;7.928;2023-03-15T09:51:57;100252.09;;;12.63;52.50
30730;BME280;17476;48.458;7.928;2023-03-15T09:54:38;100262.59;;;12.54;51.43
30730;BME280;17476;48.458;7.928;2023-03-15T09:57:17;100259.91;;;11.99;52.72
30730;BME280;17476;48.458;7.928;2023-03-15T09:59:51;100261.34;;;11.85;52.27
30730;BME280;17476;48.458;7.928;2023-03-15T10:02:27;100274.78;;;11.98;52.05
30730;BME280;17476;48.458;7.928;2023-03-15T10:05:00;100264.13;;;12.80;51.62
30730;BME280;17476;48.458;7.928;2023-03-15T10:07:30;100262.38;;;13.11;48.85
30730;BME280;17476;48.458;7.928;2023-03-15T10:09:57;100252.38;;;13.07;48.43
30730;BME280;17476;48.458;7.928;2023-03-15T10:12:33;100257.50;;;13.00;46.36
30730;BME280;17476;48.458;7.928;2023-03-15T10:15:38;100255.41;;;13.35;46.65
30730;BME280;17476;48.458;7.928;2023-03-15T10:18:39;100263.84;;;13.14;46.97
30730;BME280;17476;48.458;7.928;2023-03-15T10:21:26;100254.50;;;12.80;49.17
30730;BME280;17476;48.458;7.928;2023-03-15T10:23:55;100255.53;;;13.02;51.98
30730;BME280;17476;48.458;7.928;2023-03-15T10:26:29;100255.19;;;13.05;47.38
30730;BME280;17476;48.458;7.928;2023-03-15T10:28:57;100253.47;;;13.29;46.11
30730;BME280;17476;48.458;7.928;2023-03-15T10:31:29;100253.22;;;13.07;45.59
30730;BME280;17476;48.458;7.928;2023-03-15T10:33:56;100256.00;;;13.06;42.63
30730;BME280;17476;48.458;7.928;2023-03-15T10:36:24;100246.91;;;12.85;43.93
30730;BME280;17476;48.458;7.928;2023-03-15T10:38:50;100247.25;;;13.22;44.78
30730;BME280;17476;48.458;7.928;2023-03-15T10:41:44;100242.63;;;14.45;44.06
30730;BME280;17476;48.458;7.928;2023-03-15T10:44:22;100245.09;;;13.94;41.15
30730;BME280;17476;48.458;7.928;2023-03-15T10:47:12;100253.59;;;13.58;41.52
30730;BME280;17476;48.458;7.928;2023-03-15T10:49:40;100249.53;;;13.93;43.24
30730;BME280;17476;48.458;7.928;2023-03-15T10:52:26;100254.03;;;14.23;40.22
30730;BME280;17476;48.458;7.928;2023-03-15T10:54:52;100249.34;;;13.95;42.79
30730;BME280;17476;48.458;7.928;2023-03-15T10:57:19;100242.53;;;15.34;41.10
30730;BME280;17476;48.458;7.928;2023-03-15T10:59:58;100243.41;;;15.83;38.25
30730;BME280;17476;48.458;7.928;2023-03-15T11:02:25;100245.03;;;16.06;39.80
30730;BME280;17476;48.458;7.928;2023-03-15T11:05:16;100228.13;;;17.04;37.64
30730;BME280;17476;48.458;7.928;2023-03-15T11:07:57;100226.50;;;17.10;38.78
30730;BME280;17476;48.458;7.928;2023-03-15T11:10:34;100229.78;;;17.18;37.16
30730;BME280;17476;48.458;7.928;2023-03-15T11:13:20;100232.38;;;17.05;35.83
30730;BME280;17476;48.458;7.928;2023-03-15T11:21:14;100213.28;;;18.49;32.98
30730;BME280;17476;48.458;7.928;2023-03-15T11:23:49;100215.06;;;18.75;34.20
30730;BME280;17476;48.458;7.928;2023-03-15T11:26:24;100209.91;;;18.15;34.19
30730;BME280;17476;48.458;7.928;2023-03-15T11:29:31;100212.41;;;17.90;35.74
30730;BME280;17476;48.458;7.928;2023-03-15T11:32:00;100211.94;;;18.26;34.61
30730;BME280;17476;48.458;7.928;2023-03-15T11:35:05;100203.81;;;18.08;33.52
30730;BME280;17476;48.458;7.928;2023-03-15T11:38:09;100216.16;;;16.67;32.68
30730;BME280;17476;48.458;7.928;2023-03-15T11:40:45;100203.91;;;16.53;35.22
30730;BME280;17476;48.458;7.928;2023-03-15T11:46:13;100202.78;;;15.99;35.65
30730;BME280;17476;48.458;7.928;2023-03-15T11:48:52;100193.13;;;16.13;37.32
30730;BME280;17476;48.458;7.928;2023-03-15T11:51:20;100195.22;;;15.25;36.58
30730;BME280;17476;48.458;7.928;2023-03-15T11:54:15;100199.94;;;14.94;39.27
30730;BME280;17476;48.458;7.928;2023-03-15T11:56:52;100203.59;;;14.19;38.01
30730;BME280;17476;48.458;7.928;2023-03-15T11:59:33;100199.25;;;14.11;38.91
30730;BME280;17476;48.458;7.928;2023-03-15T12:07:10;100208.06;;;13.81;41.43
30730;BME280;17476;48.458;7.928;2023-03-15T12:17:49;100197.53;;;14.48;38.50
30730;BME280;17476;48.458;7.928;2023-03-15T12:20:17;100185.16;;;15.57;38.57
30730;BME280;17476;48.458;7.928;2023-03-15T12:25:56;100176.56;;;17.55;40.60
30730;BME280;17476;48.458;7.928;2023-03-15T12:28:39;100178.78;;;17.64;33.92
30730;BME280;17476;48.458;7.928;2023-03-15T12:31:10;100167.97;;;17.26;32.35
30730;BME280;17476;48.458;7.928;2023-03-15T12:33:54;100187.88;;;15.92;34.23
30730;BME280;17476;48.458;7.928;2023-03-15T12:36:36;100179.91;;;14.78;36.71
30730;BME280;17476;48.458;7.928;2023-03-15T12:39:34;100178.22;;;14.70;38.23
30730;BME280;17476;48.458;7.928;2023-03-15T12:42:06;100176.97;;;14.88;38.35
30730;BME280;17476;48.458;7.928;2023-03-15T12:44:39;100173.06;;;15.20;38.58
30730;BME280;17476;48.458;7.928;2023-03-15T12:47:10;100166.03;;;16.39;36.29
30730;BME280;17476;48.458;7.928;2023-03-15T12:49:43;100174.34;;;16.29;34.94
30730;BME280;17476;48.458;7.928;2023-03-15T12:57:44;100164.88;;;16.07;35.39
30730;BME280;17476;48.458;7.928;2023-03-15T13:00:21;100164.94;;;15.86;37.12
30730;BME280;17476;48.458;7.928;2023-03-15T13:03:09;100156.78;;;15.59;36.73
30730;BME280;17476;48.458;7.928;2023-03-15T13:09:15;100171.75;;;14.73;37.08
30730;BME280;17476;48.458;7.928;2023-03-15T13:12:04;100170.41;;;14.33;37.48
30730;BME280;17476;48.458;7.928;2023-03-15T13:15:05;100170.66;;;13.93;38.69
30730;BME280;17476;48.458;7.928;2023-03-15T13:17:56;100168.59;;;13.66;38.25
30730;BME280;17476;48.458;7.928;2023-03-15T13:33:25;100168.59;;;12.97;44.04
30730;BME280;17476;48.458;7.928;2023-03-15T13:36:18;100166.16;;;12.96;43.46
30730;BME280;17476;48.458;7.928;2023-03-15T13:38:53;100183.44;;;12.82;45.98
30730;BME280;17476;48.458;7.928;2023-03-15T13:41:25;100184.91;;;12.53;49.12
30730;BME280;17476;48.458;7.928;2023-03-15T13:43:56;100186.72;;;12.45;51.47
30730;BME280;17476;48.458;7.928;2023-03-15T13:46:34;100182.44;;;12.44;53.34
30730;BME280;17476;48.458;7.928;2023-03-15T13:49:00;100173.41;;;12.54;53.68
30730;BME280;17476;48.458;7.928;2023-03-15T13:51:34;100172.88;;;12.59;53.65
30730;BME280;17476;48.458;7.928;2023-03-15T13:59:48;100182.16;;;12.30;55.04
30730;BME280;17476;48.458;7.928;2023-03-15T14:05:07;100193.69;;;12.13;54.77
30730;BME280;17476;48.458;7.928;2023-03-15T14:07:47;100194.38;;;11.99;56.42
30730;BME280;17476;48.458;7.928;2023-03-15T14:10:35;100193.25;;;11.93;56.48
30730;BME280;17476;48.458;7.928;2023-03-15T14:13:26;100205.66;;;11.75;57.51
30730;BME280;17476;48.458;7.928;2023-03-15T14:16:00;100211.22;;;11.56;58.85
30730;BME280;17476;48.458;7.928;2023-03-15T14:18:46;100215.81;;;11.45;58.66
30730;BME280;17476;48.458;7.928;2023-03-15T14:21:29;100214.78;;;11.30;59.35
30730;BME280;17476;48.458;7.928;2023-03-15T14:23:56;100227.50;;;11.01;60.92
30730;BME280;17476;48.458;7.928;2023-03-15T14:26:27;100212.06;;;10.89;62.61
30730;BME280;17476;48.458;7.928;2023-03-15T14:29:04;100213.06;;;10.88;62.42
30730;BME280;17476;48.458;7.928;2023-03-15T14:31:47;100209.44;;;10.81;62.58
30730;BME280;17476;48.458;7.928;2023-03-15T14:34:34;100203.56;;;10.79;63.26
30730;BME280;17476;48.458;7.928;2023-03-15T14:37:28;100206.19;;;10.87;61.51
30730;BME280;17476;48.458;7.928;2023-03-15T14:40:05;100205.53;;;10.85;61.86
30730;BME280;17476;48.458;7.928;2023-03-15T14:42:45;100203.94;;;10.92;62.53
30730;BME280;17476;48.458;7.928;2023-03-15T14:45:12;100205.59;;;11.10;60.85
30730;BME280;17476;48.458;7.928;2023-03-15T14:47:47;100200.88;;;11.38;60.43
30730;BME280;17476;48.458;7.928;2023-03-15T14:50:17;100214.00;;;11.62;59.44
30730;BME280;17476;48.458;7.928;2023-03-15T14:52:45;100212.22;;;11.79;58.47
30730;BME280;17476;48.458;7.928;2023-03-15T14:55:15;100215.50;;;11.97;58.88
30730;BME280;17476;48.458;7.928;2023-03-15T14:57:43;100208.09;;;12.17;57.47
30730;BME280;17476;48.458;7.928;2023-03-15T15:00:15;100208.59;;;12.21;58.90
30730;BME280;17476;48.458;7.928;2023-03-15T15:02:47;100212.66;;;12.23;57.94
30730;BME280;17476;48.458;7.928;2023-03-15T15:05:32;100217.94;;;12.15;57.51
30730;BME280;17476;48.458;7.928;2023-03-15T15:08:09;100219.59;;;12.00;59.00
30730;BME280;17476;48.458;7.928;2023-03-15T15:10:41;100219.25;;;12.03;58.94
30730;BME280;17476;48.458;7.928;2023-03-15T15:13:24;100219.75;;;11.98;58.34
30730;BME280;17476;48.458;7.928;2023-03-15T15:15:51;100228.63;;;11.81;58.38
30730;BME280;17476;48.458;7.928;2023-03-15T15:18:17;100225.00;;;11.66;58.69
30730;BME280;17476;48.458;7.928;2023-03-15T15:20:44;100222.84;;;11.53;59.79
30730;BME280;17476;48.458;7.928;2023-03-15T15:23:31;100227.94;;;11.55;60.28
30730;BME280;17476;48.458;7.928;2023-03-15T15:26:00;100218.28;;;11.55;60.37
30730;BME280;17476;48.458;7.928;2023-03-15T15:28:28;100219.59;;;11.59;59.58
30730;BME280;17476;48.458;7.928;2023-03-15T15:30:54;100226.63;;;11.59;59.67
30730;BME280;17476;48.458;7.928;2023-03-15T15:33:20;100234.66;;;11.65;59.50
30730;BME280;17476;48.458;7.928;2023-03-15T15:35:51;100232.03;;;11.65;60.02
30730;BME280;17476;48.458;7.928;2023-03-15T15:38:18;100232.03;;;11.65;60.05
30730;BME280;17476;48.458;7.928;2023-03-15T15:40:44;100235.78;;;11.63;58.96
30730;BME280;17476;48.458;7.928;2023-03-15T15:43:10;100242.34;;;11.59;59.17
30730;BME280;17476;48.458;7.928;2023-03-15T15:45:38;100242.66;;;11.56;59.91